メインページ
METAR-TAF:

METAR-TAF

空港 :

Port Hardy, ブリティッシュコロンビア州, カナダ

緯度: 50-41N, 経度: 127-22W, 海抜: 22m

現時点の気象観測

当レポートは22分前の15:00(UTC)に作成
西の風 5kt
気温 13°C
湿度 88%
気圧 1016 hPa
視程: 19.3km
高度3000ftの雲はほとんどない
高度22000ftの千切れ雲あり

METAR: CYZT 111500Z 27005KT 12SM FEW030 BKN220 13/11 A3001 RMK SC1CI6 SLP162

時間: 08:22 (15:22 UTC)

予報

当レポートは2時間43分前の12:39(UTC)に作成
予報は11日の 13時(UTC)から 12日の 01時(UTC)まで有効
変向風 3kt
視程: 10km
高度2000ftの雲はほとんどない
11日の 13時(UTC)から 11日の 18時(UTC)まで一時的に
高度2000ftの千切れ雲あり
確率 30%
11日の 13時(UTC)から 11日の 18時(UTC)まで
視程: 0.8km
高度200ftの
11日の 2100時(UTC)から
北/北西の風 12kt
視程: 10km
高度2000ftの雲はほとんどない

TAF: CYZT 111239Z 1113/1201 VRB03KT P6SM FEW020 TEMPO 1113/1118 BKN020 PROB30 1113/1118 1/2SM FG VV002 FM112100 33012KT P6SM FEW020 RMK NXT FCST BY 111900Z

4,000以上の空港の気象観測と天気予報(METAR報とTAF報)

利用可能な観測所は地図上に黄色い丸と赤い丸で示す。

丸の上にカーソルを重ねると観測所名を参照できる。

次にクリックすると気象観測と天気予報を参照できる。

マップの切り替え:黒色「×」印の緑ボタンをクリックして拡大、「-」印の緑ボタンをクリックして縮小、緑色の三角印をクリックして隣りの地図に切り替え


METAR-TAF: